createdAt,value
2018-03-19T00:02:00.662Z,99.90
2018-03-19T00:04:28.101Z,99.90
2018-03-19T00:06:55.565Z,99.90
2018-03-19T00:09:23.052Z,99.90
2018-03-19T00:11:50.549Z,99.90
2018-03-19T00:14:18.002Z,99.90
2018-03-19T00:16:45.475Z,99.90
2018-03-19T00:19:13.126Z,99.90
2018-03-19T00:21:41.524Z,99.90
2018-03-19T00:24:09.185Z,99.90
2018-03-19T00:26:36.625Z,99.90
2018-03-19T00:29:04.184Z,99.90
2018-03-19T00:31:31.668Z,99.90
2018-03-19T00:34:04.014Z,99.90
2018-03-19T00:36:31.476Z,99.90
2018-03-19T00:38:58.966Z,99.90
2018-03-19T00:41:26.555Z,99.90
2018-03-19T00:43:53.991Z,99.90
2018-03-19T00:46:22.214Z,99.90
2018-03-19T00:48:50.037Z,99.90
2018-03-19T00:51:17.487Z,99.90
2018-03-19T00:53:44.949Z,99.90
2018-03-19T00:56:12.401Z,99.90
2018-03-19T00:58:40.136Z,99.90
2018-03-19T01:01:07.585Z,99.90
2018-03-19T01:03:35.360Z,99.90
2018-03-19T01:06:03.111Z,99.90
2018-03-19T01:08:30.595Z,99.90
2018-03-19T01:10:59.561Z,99.90
2018-03-19T01:13:27.009Z,99.90
2018-03-19T01:15:54.473Z,99.90
2018-03-19T01:18:22.128Z,99.90
2018-03-19T01:20:50.353Z,99.90
2018-03-19T01:23:17.849Z,99.90
2018-03-19T01:25:45.528Z,99.90
2018-03-19T01:28:12.982Z,99.90
2018-03-19T01:30:40.425Z,99.90
2018-03-19T01:33:07.906Z,99.90
2018-03-19T01:35:35.344Z,99.90
2018-03-19T01:38:02.814Z,99.90
2018-03-19T01:40:30.281Z,99.90
2018-03-19T01:42:57.721Z,99.90
2018-03-19T01:45:26.252Z,99.90
2018-03-19T01:47:53.709Z,99.90
2018-03-19T01:50:21.189Z,99.90
2018-03-19T01:52:49.548Z,99.90
2018-03-19T01:55:17.041Z,99.90
2018-03-19T01:57:45.808Z,99.90
2018-03-19T02:00:13.289Z,99.90
2018-03-19T02:02:40.760Z,99.90
2018-03-19T02:05:08.233Z,99.90
2018-03-19T02:07:39.945Z,99.90
2018-03-19T02:10:07.412Z,99.90
2018-03-19T02:12:34.887Z,99.90
2018-03-19T02:15:02.342Z,99.90
2018-03-19T02:17:29.825Z,99.90
2018-03-19T02:19:57.256Z,99.90
2018-03-19T02:22:28.026Z,99.90
2018-03-19T02:24:55.544Z,99.90
2018-03-19T02:27:23.943Z,99.90
2018-03-19T02:29:51.397Z,99.90
2018-03-19T02:32:19.064Z,99.90
2018-03-19T02:34:46.514Z,99.90
2018-03-19T02:37:13.966Z,99.90
2018-03-19T02:39:41.437Z,99.90
2018-03-19T02:42:08.878Z,99.90
2018-03-19T02:44:37.285Z,99.90
2018-03-19T02:47:05.589Z,99.90
2018-03-19T02:49:33.055Z,99.90
2018-03-19T02:52:00.685Z,99.90
2018-03-19T02:54:28.116Z,99.90
2018-03-19T02:56:55.583Z,99.90
2018-03-19T02:59:23.118Z,99.90
2018-03-19T03:01:52.289Z,99.90
2018-03-19T03:04:19.778Z,99.90
2018-03-19T03:06:54.285Z,99.90
2018-03-19T03:09:21.996Z,99.90
2018-03-19T03:11:50.311Z,99.90
2018-03-19T03:14:17.917Z,99.90
2018-03-19T03:16:45.361Z,99.90
2018-03-19T03:19:12.829Z,99.90
2018-03-19T03:21:44.581Z,99.90
2018-03-19T03:24:12.036Z,99.90
2018-03-19T03:26:39.503Z,99.90
2018-03-19T03:29:06.950Z,99.90
2018-03-19T03:31:34.407Z,99.90
2018-03-19T03:34:01.861Z,99.90
2018-03-19T03:36:29.521Z,99.90
2018-03-19T03:39:00.460Z,99.90
2018-03-19T03:41:28.097Z,99.90
2018-03-19T03:43:55.568Z,99.90
2018-03-19T03:46:23.019Z,99.90
2018-03-19T03:48:50.488Z,99.90
2018-03-19T03:51:17.939Z,99.90
2018-03-19T03:53:45.511Z,99.90
2018-03-19T03:56:12.966Z,99.90
2018-03-19T03:58:40.439Z,99.90
2018-03-19T04:01:07.910Z,99.90
2018-03-19T04:03:35.350Z,99.90
2018-03-19T04:06:02.986Z,99.90
2018-03-19T04:08:30.559Z,99.90
2018-03-19T04:10:58.537Z,99.90
2018-03-19T04:13:26.024Z,99.90
2018-03-19T04:15:53.469Z,99.90
2018-03-19T04:18:20.932Z,99.90
2018-03-19T04:20:48.372Z,99.90
2018-03-19T04:23:20.517Z,99.90
2018-03-19T04:25:48.301Z,99.90
2018-03-19T04:28:15.761Z,99.90
2018-03-19T04:30:43.204Z,99.90
2018-03-19T04:33:10.676Z,99.90
2018-03-19T04:35:38.145Z,99.90
2018-03-19T04:38:09.559Z,99.90
2018-03-19T04:40:38.198Z,99.90
2018-03-19T04:43:05.687Z,99.90
2018-03-19T04:45:33.095Z,99.90
2018-03-19T04:48:00.628Z,99.90
2018-03-19T04:50:28.293Z,99.90
2018-03-19T04:52:56.663Z,99.90
2018-03-19T04:55:24.110Z,99.90
2018-03-19T04:57:51.679Z,99.90
2018-03-19T05:00:19.142Z,99.90
2018-03-19T05:02:46.580Z,99.90
2018-03-19T05:05:14.055Z,99.90
2018-03-19T05:07:41.519Z,99.90
2018-03-19T05:10:09.009Z,99.90
2018-03-19T05:12:36.485Z,99.90
2018-03-19T05:15:04.721Z,99.90
2018-03-19T05:17:32.204Z,99.90
2018-03-19T05:19:59.675Z,99.90
2018-03-19T05:22:27.134Z,99.90
2018-03-19T05:24:54.596Z,99.90
2018-03-19T05:27:22.107Z,99.90
2018-03-19T05:29:50.353Z,99.90
2018-03-19T05:32:19.507Z,99.90
2018-03-19T05:34:47.101Z,99.90
2018-03-19T05:37:14.585Z,99.90
2018-03-19T05:39:42.056Z,99.90
2018-03-19T05:42:09.501Z,99.90
2018-03-19T05:44:38.665Z,99.90
2018-03-19T05:47:06.105Z,99.90
2018-03-19T05:49:33.604Z,99.90
2018-03-19T05:52:01.055Z,99.90
2018-03-19T05:54:32.100Z,99.90
2018-03-19T05:56:59.595Z,99.90
2018-03-19T05:59:28.245Z,99.90
2018-03-19T06:01:55.709Z,99.90
2018-03-19T06:04:23.320Z,99.90
2018-03-19T06:06:50.802Z,99.90
2018-03-19T06:09:18.258Z,99.90
2018-03-19T06:11:45.736Z,99.90
2018-03-19T06:14:13.173Z,99.90
2018-03-19T06:16:41.558Z,99.90
2018-03-19T06:19:09.035Z,99.90
2018-03-19T06:21:36.477Z,99.90
2018-03-19T06:24:03.944Z,99.90
2018-03-19T06:26:32.193Z,99.90
2018-03-19T06:29:00.600Z,99.90
2018-03-19T06:31:28.087Z,99.90
2018-03-19T06:33:56.303Z,99.90
2018-03-19T06:36:23.948Z,99.90
2018-03-19T06:38:51.429Z,99.90
2018-03-19T06:41:19.329Z,99.90
2018-03-19T06:43:46.981Z,99.90
2018-03-19T06:46:14.489Z,99.90
2018-03-19T06:48:42.543Z,99.90
2018-03-19T06:51:10.045Z,99.90
2018-03-19T06:53:37.515Z,99.90
2018-03-19T06:56:04.980Z,99.90
2018-03-19T06:58:33.345Z,99.90
2018-03-19T07:01:00.817Z,99.90
2018-03-19T07:03:28.289Z,99.90
2018-03-19T07:05:55.740Z,99.90
2018-03-19T07:08:23.394Z,99.90
2018-03-19T07:10:51.645Z,99.90
2018-03-19T07:13:19.346Z,99.90
2018-03-19T07:15:47.628Z,99.90
2018-03-19T07:18:15.084Z,99.90
2018-03-19T07:20:42.548Z,99.90
2018-03-19T07:23:10.073Z,99.90
2018-03-19T07:25:41.210Z,99.90
2018-03-19T07:28:08.773Z,99.90
2018-03-19T07:30:37.180Z,99.90
2018-03-19T07:33:05.394Z,99.90
2018-03-19T07:35:32.889Z,99.90
2018-03-19T07:38:00.364Z,99.80
2018-03-19T07:40:27.800Z,99.40
2018-03-19T07:42:59.907Z,99.90
2018-03-19T07:45:27.537Z,99.90
2018-03-19T07:47:55.800Z,99.90
2018-03-19T07:50:23.254Z,99.90
2018-03-19T07:52:51.140Z,99.80
2018-03-19T07:55:18.939Z,99.40
2018-03-19T07:57:46.473Z,98.40
2018-03-19T08:00:14.094Z,98.20
2018-03-19T08:02:41.557Z,98.90
2018-03-19T08:05:09.014Z,97.70
2018-03-19T08:07:36.572Z,96.20
2018-03-19T08:10:04.678Z,95.20
2018-03-19T08:12:35.285Z,95.30
2018-03-19T08:15:02.746Z,94.50
2018-03-19T08:17:30.436Z,93.40
2018-03-19T08:19:57.926Z,93.40
2018-03-19T08:22:25.382Z,93.80
2018-03-19T08:24:52.840Z,91.10
2018-03-19T08:27:20.293Z,91.40
2018-03-19T08:29:51.476Z,91.40
2018-03-19T08:32:20.052Z,91.10
2018-03-19T08:34:47.834Z,91.10
2018-03-19T08:37:15.284Z,90.30
2018-03-19T08:39:43.715Z,90.90
2018-03-19T08:42:14.488Z,86.00
2018-03-19T08:44:41.966Z,88.80
2018-03-19T08:47:09.712Z,83.40
2018-03-19T08:49:39.596Z,85.20
2018-03-19T08:52:07.072Z,85.20
2018-03-19T08:54:34.873Z,90.70
2018-03-19T08:57:02.328Z,91.80
2018-03-19T08:59:29.933Z,91.90
2018-03-19T09:01:58.953Z,92.90
2018-03-19T09:04:26.427Z,92.90
2018-03-19T09:06:53.901Z,93.90
2018-03-19T09:09:21.350Z,93.10
2018-03-19T09:11:48.993Z,92.80
2018-03-19T09:14:17.852Z,93.30
2018-03-19T09:16:45.347Z,93.20
2018-03-19T09:19:12.770Z,91.90
2018-03-19T09:21:41.421Z,92.70
2018-03-19T09:24:08.891Z,91.30
2018-03-19T09:26:36.626Z,93.50
2018-03-19T09:29:07.841Z,92.40
2018-03-19T09:31:35.311Z,91.90
2018-03-19T09:34:02.764Z,93.80
2018-03-19T09:36:32.736Z,94.00
2018-03-19T09:39:00.154Z,94.00
2018-03-19T09:41:27.622Z,94.60
2018-03-19T09:43:58.445Z,93.20
2018-03-19T09:46:26.745Z,94.20
2018-03-19T09:48:54.352Z,95.30
2018-03-19T09:51:21.822Z,92.70
2018-03-19T09:53:49.269Z,93.90
2018-03-19T09:56:16.755Z,93.40
2018-03-19T09:58:44.233Z,91.90
2018-03-19T10:01:12.440Z,91.10
2018-03-19T10:03:40.860Z,88.10
2018-03-19T10:06:08.325Z,87.90
2018-03-19T10:08:35.769Z,91.00
2018-03-19T10:11:03.228Z,92.90
2018-03-19T10:13:30.850Z,89.60
2018-03-19T10:15:58.313Z,92.10
2018-03-19T10:18:25.767Z,92.50
2018-03-19T10:20:54.152Z,84.40
2018-03-19T10:23:21.602Z,81.00
2018-03-19T10:25:49.737Z,86.20
2018-03-19T10:28:17.228Z,82.30
2018-03-19T10:30:44.675Z,85.50
2018-03-19T10:33:12.105Z,93.80
2018-03-19T10:35:40.335Z,84.70
2018-03-19T10:38:07.769Z,84.50
2018-03-19T10:40:35.243Z,87.90
2018-03-19T10:43:02.706Z,90.50
2018-03-19T10:45:34.062Z,91.40
2018-03-19T10:48:01.501Z,89.50
2018-03-19T10:50:29.150Z,91.60
2018-03-19T10:52:57.440Z,90.80
2018-03-19T10:55:25.015Z,83.30
2018-03-19T10:57:52.481Z,86.70
2018-03-19T11:00:20.818Z,85.90
2018-03-19T11:02:54.155Z,86.20
2018-03-19T11:05:27.914Z,90.10
2018-03-19T11:08:00.912Z,82.60
2018-03-19T11:10:28.857Z,87.40
2018-03-19T11:12:56.368Z,86.60
2018-03-19T11:15:23.814Z,80.20
2018-03-19T11:17:51.308Z,88.80
2018-03-19T11:20:18.745Z,90.80
2018-03-19T11:22:46.221Z,86.50
2018-03-19T11:25:13.852Z,78.20
2018-03-19T11:27:41.333Z,73.60
2018-03-19T11:30:08.777Z,86.50
2018-03-19T11:32:37.961Z,84.40
2018-03-19T11:35:05.421Z,84.40
2018-03-19T11:37:32.960Z,80.60
2018-03-19T11:40:00.465Z,84.70
2018-03-19T11:42:28.169Z,76.30
2018-03-19T11:44:59.717Z,82.60
2018-03-19T11:47:27.156Z,86.50
2018-03-19T11:49:54.673Z,82.40
2018-03-19T11:52:22.135Z,84.00
2018-03-19T11:54:49.608Z,76.10
2018-03-19T11:57:17.049Z,79.70
2018-03-19T11:59:44.538Z,78.70
2018-03-19T12:02:11.998Z,76.20
2018-03-19T12:04:39.446Z,76.50
2018-03-19T12:07:06.945Z,85.30
2018-03-19T12:09:35.129Z,85.10
2018-03-19T12:12:02.597Z,77.30
2018-03-19T12:14:30.421Z,78.10
2018-03-19T12:16:57.893Z,82.60
2018-03-19T12:19:25.338Z,82.90
2018-03-19T12:21:52.852Z,80.50
2018-03-19T12:24:20.341Z,72.20
2018-03-19T12:26:47.833Z,69.50
2018-03-19T12:29:15.396Z,72.30
2018-03-19T12:31:44.258Z,68.90
2018-03-19T12:34:11.976Z,69.00
2018-03-19T12:36:39.412Z,69.20
2018-03-19T12:39:06.921Z,67.40
2018-03-19T12:41:34.366Z,64.70
2018-03-19T12:44:03.645Z,64.30
2018-03-19T12:46:31.404Z,64.30
2018-03-19T12:48:58.841Z,66.40
2018-03-19T12:51:31.146Z,64.80
2018-03-19T12:53:58.616Z,64.40
2018-03-19T12:56:26.461Z,64.30
2018-03-19T12:58:53.929Z,67.80
2018-03-19T13:01:26.016Z,76.20
2018-03-19T13:03:53.606Z,69.00
2018-03-19T13:06:21.188Z,66.50
2018-03-19T13:08:48.660Z,59.90
2018-03-19T13:11:16.117Z,64.10
2018-03-19T13:13:43.569Z,69.00
2018-03-19T13:16:11.963Z,63.90
2018-03-19T13:18:39.413Z,61.80
2018-03-19T13:21:08.248Z,64.80
2018-03-19T13:23:37.294Z,67.90
2018-03-19T13:26:04.768Z,67.90
2018-03-19T13:28:32.214Z,63.40
2018-03-19T13:30:59.691Z,66.60
2018-03-19T13:33:28.065Z,65.40
2018-03-19T13:35:55.517Z,63.40
2018-03-19T13:38:23.342Z,62.50
2018-03-19T13:40:50.785Z,59.10
2018-03-19T13:43:18.251Z,60.10
2018-03-19T13:45:45.696Z,62.80
2018-03-19T13:48:16.652Z,58.70
2018-03-19T13:50:45.051Z,60.30
2018-03-19T13:53:12.501Z,59.20
2018-03-19T13:55:39.941Z,59.90
2018-03-19T13:58:07.448Z,58.70
2018-03-19T14:00:34.887Z,61.30
2018-03-19T14:03:06.971Z,59.70
2018-03-19T14:05:35.193Z,59.70
2018-03-19T14:08:02.642Z,59.70
2018-03-19T14:10:30.117Z,62.20
2018-03-19T14:12:57.877Z,61.10
2018-03-19T14:15:25.345Z,60.60
2018-03-19T14:17:56.801Z,63.10
2018-03-19T14:20:24.428Z,64.60
2018-03-19T14:22:51.872Z,62.50
2018-03-19T14:25:19.336Z,61.30
2018-03-19T14:27:46.884Z,62.00
2018-03-19T14:30:14.254Z,60.70
2018-03-19T14:32:45.616Z,60.70
2018-03-19T14:35:14.217Z,59.70
2018-03-19T14:37:41.685Z,59.70
2018-03-19T14:40:09.129Z,62.10
2018-03-19T14:42:36.609Z,58.90
2018-03-19T14:45:04.046Z,62.90
2018-03-19T14:47:31.521Z,61.90
2018-03-19T14:49:58.969Z,60.50
2018-03-19T14:52:27.358Z,61.50
2018-03-19T14:54:54.809Z,61.10
2018-03-19T14:57:22.297Z,59.60
2018-03-19T14:59:49.882Z,58.60
2018-03-19T15:02:17.345Z,59.70
2018-03-19T15:04:44.796Z,60.80
2018-03-19T15:07:12.265Z,59.20
2018-03-19T15:09:41.610Z,61.70
2018-03-19T15:12:09.057Z,61.60
2018-03-19T15:14:36.517Z,60.20
2018-03-19T15:17:03.966Z,60.50
2018-03-19T15:19:31.526Z,60.40
2018-03-19T15:21:58.981Z,60.90
2018-03-19T15:24:26.447Z,60.00
2018-03-19T15:26:54.821Z,60.00
2018-03-19T15:29:22.286Z,61.90
2018-03-19T15:31:49.755Z,63.10
2018-03-19T15:34:17.204Z,59.80
2018-03-19T15:36:44.853Z,62.30
2018-03-19T15:39:12.301Z,64.70
2018-03-19T15:41:39.768Z,61.30
2018-03-19T15:44:08.150Z,62.70
2018-03-19T15:46:36.392Z,64.90
2018-03-19T15:49:07.402Z,64.90
2018-03-19T15:51:34.875Z,63.80
2018-03-19T15:54:03.993Z,63.10
2018-03-19T15:56:31.445Z,63.10
2018-03-19T15:58:58.930Z,64.10
2018-03-19T16:01:26.438Z,62.50
2018-03-19T16:03:54.062Z,63.70
2018-03-19T16:06:22.180Z,64.80
2018-03-19T16:08:49.814Z,64.00
2018-03-19T16:11:17.295Z,63.10
2018-03-19T16:13:44.789Z,65.40
2018-03-19T16:16:12.243Z,65.90
2018-03-19T16:18:39.696Z,68.10
2018-03-19T16:21:07.150Z,65.20
2018-03-19T16:23:34.614Z,68.70
2018-03-19T16:26:02.551Z,67.00
2018-03-19T16:28:30.616Z,66.60
2018-03-19T16:30:58.081Z,68.50
2018-03-19T16:33:25.537Z,70.00
2018-03-19T16:35:56.549Z,74.40
2018-03-19T16:38:23.953Z,74.30
2018-03-19T16:40:51.798Z,78.20
2018-03-19T16:43:20.045Z,76.90
2018-03-19T16:45:47.509Z,79.80
2018-03-19T16:48:14.962Z,82.50
2018-03-19T16:50:46.118Z,82.80
2018-03-19T16:53:13.654Z,82.40
2018-03-19T16:55:41.134Z,84.80
2018-03-19T16:58:09.498Z,86.10
2018-03-19T17:00:36.958Z,87.00
2018-03-19T17:03:04.678Z,88.50
2018-03-19T17:05:32.321Z,88.10
2018-03-19T17:07:59.785Z,88.40
2018-03-19T17:10:27.222Z,90.50
2018-03-19T17:12:54.713Z,90.50
2018-03-19T17:15:22.924Z,91.00
2018-03-19T17:17:50.382Z,92.30
2018-03-19T17:20:17.821Z,93.30
2018-03-19T17:22:45.323Z,93.60
2018-03-19T17:25:12.790Z,93.80
2018-03-19T17:27:40.377Z,93.70
2018-03-19T17:30:07.831Z,94.20
2018-03-19T17:32:35.428Z,94.90
2018-03-19T17:35:02.894Z,94.80
2018-03-19T17:37:30.328Z,95.90
2018-03-19T17:39:57.768Z,96.60
2018-03-19T17:42:26.740Z,97.70
2018-03-19T17:44:54.207Z,97.70
2018-03-19T17:47:21.649Z,98.80
2018-03-19T17:49:49.133Z,99.10
2018-03-19T17:52:17.506Z,99.90
2018-03-19T17:54:44.969Z,99.90
2018-03-19T17:57:12.421Z,99.60
2018-03-19T17:59:39.892Z,99.90
2018-03-19T18:02:07.354Z,99.90
2018-03-19T18:04:34.852Z,99.90
2018-03-19T18:07:02.304Z,99.90
2018-03-19T18:09:29.862Z,99.90
2018-03-19T18:11:57.474Z,99.90
2018-03-19T18:14:24.944Z,99.90
2018-03-19T18:16:52.397Z,99.90
2018-03-19T18:19:20.269Z,99.90
2018-03-19T18:21:48.083Z,99.90
2018-03-19T18:24:15.771Z,99.90
2018-03-19T18:26:43.437Z,99.90
2018-03-19T18:29:10.881Z,99.90
2018-03-19T18:31:38.334Z,99.90
2018-03-19T18:34:05.800Z,99.90
2018-03-19T18:36:33.246Z,99.90
2018-03-19T18:39:01.486Z,99.90
2018-03-19T18:41:29.701Z,99.90
2018-03-19T18:43:57.136Z,99.90
2018-03-19T18:46:24.601Z,99.90
2018-03-19T18:48:52.081Z,99.90
2018-03-19T18:51:20.449Z,99.90
2018-03-19T18:53:48.816Z,99.90
2018-03-19T18:56:16.278Z,99.90
2018-03-19T18:58:43.726Z,99.90
2018-03-19T19:01:11.193Z,99.90
2018-03-19T19:03:38.640Z,99.90
2018-03-19T19:06:06.149Z,99.90
2018-03-19T19:08:36.208Z,99.90
2018-03-19T19:11:04.466Z,99.90
2018-03-19T19:13:31.909Z,99.90
2018-03-19T19:15:59.373Z,99.90
2018-03-19T19:18:26.823Z,99.90
2018-03-19T19:20:55.061Z,99.90
2018-03-19T19:23:26.277Z,99.90
2018-03-19T19:25:54.217Z,99.90
2018-03-19T19:28:22.421Z,99.90
2018-03-19T19:30:49.872Z,99.90
2018-03-19T19:33:17.351Z,99.90
2018-03-19T19:35:44.832Z,99.90
2018-03-19T19:38:12.289Z,99.90
2018-03-19T19:40:39.766Z,99.90
2018-03-19T19:43:07.961Z,99.90
2018-03-19T19:45:35.585Z,99.90
2018-03-19T19:48:03.070Z,99.90
2018-03-19T19:50:30.741Z,99.90
2018-03-19T19:52:58.186Z,99.90
2018-03-19T19:55:25.716Z,99.90
2018-03-19T19:57:53.188Z,99.90
2018-03-19T20:00:21.308Z,99.90
2018-03-19T20:02:48.789Z,99.90
2018-03-19T20:05:16.271Z,99.90
2018-03-19T20:07:43.734Z,99.90
2018-03-19T20:10:11.280Z,99.90
2018-03-19T20:12:39.057Z,99.90
2018-03-19T20:15:06.515Z,99.90
2018-03-19T20:17:33.967Z,99.90
2018-03-19T20:20:01.416Z,99.90
2018-03-19T20:22:29.829Z,99.90
2018-03-19T20:24:58.253Z,99.90
2018-03-19T20:27:25.705Z,99.90
2018-03-19T20:29:53.154Z,99.90
2018-03-19T20:32:20.630Z,99.90
2018-03-19T20:34:49.604Z,99.90
2018-03-19T20:37:17.102Z,99.90
2018-03-19T20:39:44.553Z,99.90
2018-03-19T20:42:12.017Z,99.90
2018-03-19T20:44:39.785Z,99.90
2018-03-19T20:47:07.224Z,99.90
2018-03-19T20:49:34.986Z,99.90
2018-03-19T20:52:02.961Z,99.90
2018-03-19T20:54:30.466Z,99.90
2018-03-19T20:56:57.935Z,99.90
2018-03-19T20:59:25.414Z,99.90
2018-03-19T21:01:53.708Z,99.90
2018-03-19T21:04:21.929Z,99.90
2018-03-19T21:06:49.606Z,99.90
2018-03-19T21:09:17.048Z,99.90
2018-03-19T21:11:48.246Z,99.90
2018-03-19T21:14:15.697Z,99.90
2018-03-19T21:16:43.441Z,99.90
2018-03-19T21:19:11.533Z,99.90
2018-03-19T21:21:39.001Z,99.90
2018-03-19T21:24:06.475Z,99.90
2018-03-19T21:26:33.925Z,99.90
2018-03-19T21:29:01.404Z,99.90
2018-03-19T21:31:28.847Z,99.90
2018-03-19T21:33:57.101Z,99.90
2018-03-19T21:36:25.032Z,99.90
2018-03-19T21:38:52.494Z,99.90
2018-03-19T21:41:20.084Z,99.90
2018-03-19T21:43:47.636Z,99.90
2018-03-19T21:46:15.084Z,99.90
2018-03-19T21:48:42.556Z,99.90
2018-03-19T21:51:10.001Z,99.90
2018-03-19T21:53:37.454Z,99.90
2018-03-19T21:56:09.100Z,99.90
2018-03-19T21:58:36.548Z,99.90
2018-03-19T22:01:04.001Z,99.90
2018-03-19T22:03:31.526Z,99.90
2018-03-19T22:05:58.997Z,99.90
2018-03-19T22:08:26.445Z,99.90
2018-03-19T22:10:53.893Z,99.90
2018-03-19T22:13:21.344Z,99.90
2018-03-19T22:15:48.817Z,99.90
2018-03-19T22:18:16.289Z,99.90
2018-03-19T22:20:43.833Z,99.90
2018-03-19T22:23:12.036Z,99.90
2018-03-19T22:25:40.248Z,99.90
2018-03-19T22:28:07.722Z,99.90
2018-03-19T22:30:35.196Z,99.90
2018-03-19T22:33:02.829Z,99.90
2018-03-19T22:35:30.941Z,99.90
2018-03-19T22:37:58.452Z,99.90
2018-03-19T22:40:25.892Z,99.90
2018-03-19T22:42:53.365Z,99.90
2018-03-19T22:45:20.813Z,99.90
2018-03-19T22:47:48.283Z,99.90
2018-03-19T22:50:15.758Z,99.90
2018-03-19T22:52:43.268Z,99.90
2018-03-19T22:55:10.687Z,99.90
2018-03-19T22:57:38.132Z,99.90
2018-03-19T23:00:05.869Z,99.90
2018-03-19T23:02:34.846Z,99.90
2018-03-19T23:07:59.885Z,99.90
2018-03-19T23:10:27.352Z,99.90
2018-03-19T23:12:54.831Z,99.90
2018-03-19T23:15:23.180Z,99.90
2018-03-19T23:17:50.624Z,99.90
2018-03-19T23:20:18.076Z,99.90
2018-03-19T23:22:45.548Z,99.90
2018-03-19T23:25:13.029Z,99.90
2018-03-19T23:27:40.481Z,99.90
2018-03-19T23:30:08.241Z,99.90
2018-03-19T23:32:36.241Z,99.90
2018-03-19T23:35:03.680Z,99.90
2018-03-19T23:37:32.126Z,99.90
2018-03-19T23:39:59.606Z,99.90
2018-03-19T23:42:27.052Z,99.90
2018-03-19T23:44:54.504Z,99.90
2018-03-19T23:47:21.976Z,99.90
2018-03-19T23:49:50.370Z,99.90
2018-03-19T23:52:18.110Z,99.90
2018-03-19T23:54:45.565Z,99.90
2018-03-19T23:57:13.036Z,99.90
2018-03-19T23:59:40.535Z,99.90
